createdAt,value
2023-02-19T00:02:19.211Z,99355.53
2023-02-19T00:04:45.982Z,99343.91
2023-02-19T00:07:12.795Z,99349.34
2023-02-19T00:09:39.603Z,99340.41
2023-02-19T00:12:06.631Z,99340.72
2023-02-19T00:14:33.375Z,99337.16
2023-02-19T00:17:00.131Z,99332.56
2023-02-19T00:19:28.043Z,99334.22
2023-02-19T00:21:54.897Z,99339.09
2023-02-19T00:24:27.746Z,99338.56
2023-02-19T00:26:54.634Z,99334.75
2023-02-19T00:29:25.215Z,99336.38
2023-02-19T00:31:52.094Z,99332.59
2023-02-19T00:34:19.032Z,99333.38
2023-02-19T00:36:45.922Z,99337.47
2023-02-19T00:39:18.270Z,99336.38
2023-02-19T00:41:46.429Z,99329.88
2023-02-19T00:44:15.003Z,99325.03
2023-02-19T00:46:46.162Z,99318.00
2023-02-19T00:49:20.961Z,99311.75
2023-02-19T00:51:49.116Z,99310.94
2023-02-19T00:54:17.213Z,99308.78
2023-02-19T00:56:44.353Z,99305.00
2023-02-19T00:59:11.426Z,99302.03
2023-02-19T01:01:38.699Z,99298.47
2023-02-19T01:04:06.859Z,99303.34
2023-02-19T01:06:34.639Z,99294.16
2023-02-19T01:09:02.299Z,99298.78
2023-02-19T01:11:29.362Z,99294.69
2023-02-19T01:14:01.678Z,99296.31
2023-02-19T01:16:30.904Z,99285.50
2023-02-19T01:18:59.016Z,99292.81
2023-02-19T01:21:28.468Z,99298.78
2023-02-19T01:23:56.788Z,99293.34
2023-02-19T01:26:28.314Z,99300.91
2023-02-19T01:28:59.859Z,99284.13
2023-02-19T01:31:28.548Z,99290.06
2023-02-19T01:34:04.510Z,99289.78
2023-02-19T01:36:34.444Z,99297.91
2023-02-19T01:39:05.046Z,99294.38
2023-02-19T01:41:36.609Z,99291.69
2023-02-19T01:44:11.223Z,99311.16
2023-02-19T01:46:43.459Z,99306.31
2023-02-19T01:49:15.211Z,99303.59
2023-02-19T01:51:57.351Z,99296.31
2023-02-19T01:54:30.948Z,99312.25
2023-02-19T01:56:59.757Z,99315.25
2023-02-19T01:59:26.787Z,99302.50
2023-02-19T02:01:53.783Z,99306.06
2023-02-19T02:04:20.656Z,99303.06
2023-02-19T02:06:52.743Z,99301.22
2023-02-19T02:09:40.996Z,99292.28
2023-02-19T02:12:07.960Z,99290.38
2023-02-19T02:14:39.293Z,99276.84
2023-02-19T02:17:28.837Z,99272.81
2023-02-19T02:20:14.778Z,99275.75
2023-02-19T02:22:55.580Z,99269.25
2023-02-19T02:25:59.785Z,99255.19
2023-02-19T02:28:57.875Z,99254.94
2023-02-19T02:31:39.137Z,99261.16
2023-02-19T02:34:27.288Z,99263.91
2023-02-19T02:36:56.733Z,99256.31
2023-02-19T02:39:28.309Z,99257.94
2023-02-19T02:42:18.371Z,99263.34
2023-02-19T02:45:05.665Z,99262.81
2023-02-19T02:47:42.797Z,99255.22
2023-02-19T02:50:35.064Z,99250.09
2023-02-19T02:53:30.284Z,99250.91
2023-02-19T02:56:00.251Z,99253.06
2023-02-19T02:58:30.072Z,99248.22
2023-02-19T03:01:32.465Z,99245.47
2023-02-19T03:04:12.353Z,99247.06
2023-02-19T03:06:42.760Z,99255.19
2023-02-19T03:09:40.518Z,99247.63
2023-02-19T03:12:33.977Z,99237.34
2023-02-19T03:15:28.354Z,99236.84
2023-02-19T03:18:22.182Z,99229.56
2023-02-19T03:20:55.934Z,99229.56
2023-02-19T03:23:51.376Z,99230.38
2023-02-19T03:26:21.032Z,99221.72
2023-02-19T03:29:11.169Z,99231.19
2023-02-19T03:31:41.043Z,99228.75
2023-02-19T03:34:15.966Z,99229.56
2023-02-19T03:37:03.366Z,99239.31
2023-02-19T03:39:30.759Z,99239.56
2023-02-19T03:42:15.655Z,99240.13
2023-02-19T03:44:48.462Z,99236.09
2023-02-19T03:47:32.750Z,99235.53
2023-02-19T03:50:17.246Z,99245.81
2023-02-19T03:53:34.476Z,99233.34
2023-02-19T03:56:10.290Z,99247.94
2023-02-19T03:59:14.800Z,99251.75
2023-02-19T04:01:50.092Z,99259.59
2023-02-19T04:04:39.610Z,99269.06
2023-02-19T04:07:06.754Z,99275.03
2023-02-19T04:09:40.089Z,99276.13
2023-02-19T04:12:16.342Z,99269.88
2023-02-19T04:14:58.778Z,99277.47
2023-02-19T04:17:33.548Z,99270.72
2023-02-19T04:20:05.380Z,99285.06
2023-02-19T04:22:33.577Z,99271.56
2023-02-19T04:25:00.876Z,99279.16
2023-02-19T04:27:27.828Z,99288.63
2023-02-19T04:29:54.601Z,99293.50
2023-02-19T04:32:21.354Z,99290.81
2023-02-19T04:34:48.114Z,99290.25
2023-02-19T04:37:14.934Z,99288.34
2023-02-19T04:39:41.766Z,99293.75
2023-02-19T04:42:10.756Z,99300.78
2023-02-19T04:44:37.556Z,99301.34
2023-02-19T04:47:04.910Z,99305.69
2023-02-19T04:49:31.742Z,99296.22
2023-02-19T04:51:59.026Z,99304.59
2023-02-19T04:54:25.815Z,99305.69
2023-02-19T04:56:52.669Z,99310.84
2023-02-19T04:59:19.385Z,99301.91
2023-02-19T05:01:46.472Z,99307.31
2023-02-19T05:04:13.330Z,99309.75
2023-02-19T05:06:40.352Z,99311.91
2023-02-19T05:09:07.153Z,99317.88
2023-02-19T05:11:34.056Z,99322.22
2023-02-19T05:14:01.291Z,99310.31
2023-02-19T05:16:28.063Z,99309.22
2023-02-19T05:18:54.953Z,99300.28
2023-02-19T05:21:21.756Z,99295.69
2023-02-19T05:23:48.575Z,99303.53
2023-02-19T05:26:22.240Z,99290.53
2023-02-19T05:28:53.015Z,99300.28
2023-02-19T05:31:21.475Z,99305.16
2023-02-19T05:33:50.817Z,99307.06
2023-02-19T05:36:20.076Z,99312.47
2023-02-19T05:38:47.158Z,99312.72
2023-02-19T05:41:24.247Z,99322.72
2023-02-19T05:43:52.031Z,99320.56
2023-02-19T05:46:24.222Z,99318.94
2023-02-19T05:48:52.918Z,99321.66
2023-02-19T05:51:23.996Z,99329.50
2023-02-19T05:53:51.519Z,99320.84
2023-02-19T05:56:30.091Z,99316.25
2023-02-19T05:58:58.690Z,99306.50
2023-02-19T06:01:28.521Z,99305.97
2023-02-19T06:03:57.602Z,99316.78
2023-02-19T06:06:26.253Z,99323.00
2023-02-19T06:08:54.080Z,99307.84
2023-02-19T06:11:21.680Z,99309.47
2023-02-19T06:13:50.262Z,99325.16
2023-02-19T06:16:18.188Z,99325.44
2023-02-19T06:18:45.656Z,99322.72
2023-02-19T06:21:13.966Z,99330.03
2023-02-19T06:23:41.854Z,99334.91
2023-02-19T06:26:09.927Z,99338.44
2023-02-19T06:28:37.978Z,99341.69
2023-02-19T06:31:06.355Z,99344.09
2023-02-19T06:33:34.207Z,99362.50
2023-02-19T06:36:03.806Z,99364.66
2023-02-19T06:38:31.321Z,99357.38
2023-02-19T06:41:06.598Z,99369.25
2023-02-19T06:43:34.739Z,99373.84
2023-02-19T06:46:04.831Z,99377.38
2023-02-19T06:48:32.980Z,99384.13
2023-02-19T06:50:59.849Z,99391.69
2023-02-19T06:53:27.518Z,99401.44
2023-02-19T06:56:06.164Z,99399.81
2023-02-19T06:58:34.056Z,99393.63
2023-02-19T07:01:01.461Z,99402.81
2023-02-19T07:03:28.536Z,99408.47
2023-02-19T07:05:55.440Z,99416.31
2023-02-19T07:08:22.318Z,99415.25
2023-02-19T07:10:58.108Z,99424.97
2023-02-19T07:13:27.036Z,99425.50
2023-02-19T07:16:11.003Z,99414.94
2023-02-19T07:18:39.927Z,99416.03
2023-02-19T07:21:14.046Z,99404.69
2023-02-19T07:23:42.480Z,99407.38
2023-02-19T07:26:15.407Z,99426.31
2023-02-19T07:28:43.695Z,99425.22
2023-02-19T07:31:11.752Z,99427.09
2023-02-19T07:33:39.198Z,99420.88
2023-02-19T07:36:09.459Z,99423.56
2023-02-19T07:38:37.316Z,99423.84
2023-02-19T07:41:07.064Z,99434.13
2023-02-19T07:43:38.010Z,99434.38
2023-02-19T07:46:13.782Z,99438.44
2023-02-19T07:48:42.997Z,99438.16
2023-02-19T07:51:18.826Z,99439.78
2023-02-19T07:53:47.546Z,99436.78
2023-02-19T07:56:14.837Z,99443.81
2023-02-19T07:58:42.678Z,99445.16
2023-02-19T08:01:17.865Z,99450.31
2023-02-19T08:03:45.765Z,99460.56
2023-02-19T08:06:13.033Z,99454.59
2023-02-19T08:08:40.359Z,99465.72
2023-02-19T08:11:27.174Z,99458.69
2023-02-19T08:13:54.301Z,99454.88
2023-02-19T08:16:36.706Z,99467.59
2023-02-19T08:19:08.098Z,99467.63
2023-02-19T08:21:35.140Z,99473.56
2023-02-19T08:24:04.407Z,99480.06
2023-02-19T08:26:32.604Z,99490.09
2023-02-19T08:28:59.440Z,99494.69
2023-02-19T08:31:29.855Z,99515.03
2023-02-19T08:33:59.111Z,99513.13
2023-02-19T08:36:26.280Z,99505.56
2023-02-19T08:38:58.621Z,99499.34
2023-02-19T08:41:25.547Z,99511.50
2023-02-19T08:43:52.741Z,99505.28
2023-02-19T08:46:19.577Z,99505.28
2023-02-19T08:48:46.834Z,99516.66
2023-02-19T08:51:14.148Z,99518.28
2023-02-19T08:53:41.804Z,99496.06
2023-02-19T08:56:16.088Z,99494.44
2023-02-19T08:58:44.142Z,99507.44
2023-02-19T09:01:15.338Z,99484.69
2023-02-19T09:03:44.507Z,99490.59
2023-02-19T09:06:20.094Z,99495.97
2023-02-19T09:08:50.261Z,99502.69
2023-02-19T09:11:17.791Z,99516.00
2023-02-19T09:13:45.056Z,99520.84
2023-02-19T09:16:12.543Z,99524.09
2023-02-19T09:18:39.552Z,99524.91
2023-02-19T09:21:07.253Z,99523.28
2023-02-19T09:23:36.974Z,99525.19
2023-02-19T09:26:11.260Z,99524.66
2023-02-19T09:28:42.030Z,99524.91
2023-02-19T09:31:15.952Z,99538.69
2023-02-19T09:33:48.679Z,99534.34
2023-02-19T09:36:16.803Z,99543.28
2023-02-19T09:38:43.815Z,99554.69
2023-02-19T09:41:32.525Z,99556.34
2023-02-19T09:44:03.351Z,99567.44
2023-02-19T09:46:46.108Z,99561.75
2023-02-19T09:49:25.996Z,99569.88
2023-02-19T09:52:00.779Z,99569.34
2023-02-19T09:54:31.751Z,99576.94
2023-02-19T09:57:02.378Z,99585.63
2023-02-19T09:59:40.521Z,99583.69
2023-02-19T10:02:23.003Z,99586.66
2023-02-19T10:04:52.097Z,99584.47
2023-02-19T10:07:24.692Z,99576.88
2023-02-19T10:10:21.205Z,99572.25
2023-02-19T10:12:55.930Z,99578.75
2023-02-19T10:15:53.182Z,99597.19
2023-02-19T10:18:30.881Z,99589.06
2023-02-19T10:20:58.510Z,99593.69
2023-02-19T10:23:27.114Z,99604.22
2023-02-19T10:26:00.110Z,99592.81
2023-02-19T10:28:33.692Z,99592.84
2023-02-19T10:31:07.207Z,99600.97
2023-02-19T10:33:54.479Z,99606.69
2023-02-19T10:36:36.178Z,99610.69
2023-02-19T10:39:21.425Z,99617.72
2023-02-19T10:41:53.747Z,99622.88
2023-02-19T10:44:38.530Z,99627.50
2023-02-19T10:47:06.686Z,99638.59
2023-02-19T10:49:43.214Z,99636.72
2023-02-19T10:52:21.355Z,99637.25
2023-02-19T10:54:56.603Z,99642.69
2023-02-19T10:57:33.845Z,99645.16
2023-02-19T11:00:22.527Z,99632.41
2023-02-19T11:02:49.589Z,99641.38
2023-02-19T11:05:21.491Z,99631.34
2023-02-19T11:07:57.003Z,99610.47
2023-02-19T11:10:34.034Z,99621.00
2023-02-19T11:13:05.944Z,99630.19
2023-02-19T11:15:37.242Z,99626.38
2023-02-19T11:18:15.238Z,99624.19
2023-02-19T11:20:56.164Z,99631.75
2023-02-19T11:23:34.893Z,99632.50
2023-02-19T11:26:07.160Z,99632.50
2023-02-19T11:28:39.873Z,99620.56
2023-02-19T11:31:20.333Z,99611.59
2023-02-19T11:34:01.693Z,99616.13
2023-02-19T11:36:35.726Z,99626.16
2023-02-19T11:39:16.828Z,99635.66
2023-02-19T11:42:29.706Z,99628.59
2023-02-19T11:45:16.953Z,99633.72
2023-02-19T11:48:04.174Z,99620.16
2023-02-19T11:51:02.100Z,99635.66
2023-02-19T11:53:33.263Z,99642.72
2023-02-19T11:56:37.200Z,99648.94
2023-02-19T11:59:17.517Z,99654.63
2023-02-19T12:02:26.346Z,99652.97
2023-02-19T12:05:27.313Z,99639.88
2023-02-19T12:08:30.752Z,99635.69
2023-02-19T12:11:24.780Z,99632.06
2023-02-19T12:14:57.861Z,99631.31
2023-02-19T12:17:56.590Z,99620.34
2023-02-19T12:20:42.006Z,99619.66
2023-02-19T12:23:36.252Z,99611.69
2023-02-19T12:26:29.144Z,99607.88
2023-02-19T12:29:24.181Z,99593.28
2023-02-19T12:32:13.188Z,99609.63
2023-02-19T12:34:55.250Z,99612.94
2023-02-19T12:38:08.118Z,99610.66
2023-02-19T12:40:58.941Z,99609.69
2023-02-19T12:43:25.953Z,99614.84
2023-02-19T12:45:59.099Z,99613.44
2023-02-19T12:48:39.335Z,99606.63
2023-02-19T12:51:24.974Z,99605.09
2023-02-19T12:54:01.484Z,99603.69
2023-02-19T12:56:49.104Z,99609.88
2023-02-19T12:59:26.496Z,99605.81
2023-02-19T13:02:16.211Z,99614.84
2023-02-19T13:05:21.135Z,99601.75
2023-02-19T13:08:02.471Z,99610.66
2023-02-19T13:10:54.777Z,99604.66
2023-02-19T13:14:04.418Z,99609.69
2023-02-19T13:16:34.593Z,99607.38
2023-02-19T13:19:04.575Z,99602.16
2023-02-19T13:21:57.224Z,99596.06
2023-02-19T13:24:40.704Z,99606.84
2023-02-19T13:30:43.621Z,99612.94
2023-02-19T13:33:46.542Z,99616.81
2023-02-19T13:36:24.116Z,99619.81
2023-02-19T13:38:52.105Z,99614.75
2023-02-19T13:41:29.274Z,99616.38
2023-02-19T13:44:05.413Z,99604.94
2023-02-19T13:46:45.544Z,99604.13
2023-02-19T13:49:29.164Z,99601.06
2023-02-19T13:52:02.167Z,99582.59
2023-02-19T13:54:39.967Z,99595.50
2023-02-19T13:57:22.214Z,99593.31
2023-02-19T13:59:52.107Z,99594.53
2023-02-19T14:02:22.073Z,99585.09
2023-02-19T14:05:05.525Z,99586.31
2023-02-19T14:08:04.196Z,99587.22
2023-02-19T14:10:51.279Z,99588.59
2023-02-19T14:13:52.303Z,99575.84
2023-02-19T14:16:29.986Z,99594.84
2023-02-19T14:18:58.309Z,99593.47
2023-02-19T14:21:36.027Z,99592.75
2023-02-19T14:24:05.126Z,99603.78
2023-02-19T14:26:34.591Z,99597.84
2023-02-19T14:29:03.223Z,99595.13
2023-02-19T14:31:40.450Z,99602.94
2023-02-19T14:34:22.350Z,99600.53
2023-02-19T14:36:56.389Z,99614.53
2023-02-19T14:39:31.550Z,99625.28
2023-02-19T14:42:04.578Z,99617.69
2023-02-19T14:44:51.342Z,99631.25
2023-02-19T14:47:22.882Z,99633.19
2023-02-19T14:50:02.130Z,99629.69
2023-02-19T14:52:44.556Z,99639.69
2023-02-19T14:55:35.042Z,99627.78
2023-02-19T14:58:11.138Z,99635.69
2023-02-19T15:00:41.797Z,99641.97
2023-02-19T15:03:38.956Z,99645.03
2023-02-19T15:06:14.363Z,99653.41
2023-02-19T15:08:47.821Z,99658.66
2023-02-19T15:11:23.193Z,99657.88
2023-02-19T15:13:57.205Z,99656.19
2023-02-19T15:16:27.032Z,99662.44
2023-02-19T15:18:59.609Z,99667.59
2023-02-19T15:21:31.210Z,99678.28
2023-02-19T15:24:05.983Z,99671.25
2023-02-19T15:26:40.577Z,99684.84
2023-02-19T15:29:14.760Z,99678.34
2023-02-19T15:32:01.286Z,99684.84
2023-02-19T15:34:31.917Z,99687.81
2023-02-19T15:37:02.721Z,99693.53
2023-02-19T15:39:37.791Z,99691.59
2023-02-19T15:42:09.911Z,99678.28
2023-02-19T15:44:39.419Z,99681.00
2023-02-19T15:47:16.295Z,99678.84
2023-02-19T15:49:52.996Z,99676.44
2023-02-19T15:52:45.429Z,99671.81
2023-02-19T15:55:15.164Z,99674.28
2023-02-19T15:57:51.188Z,99676.75
2023-02-19T16:00:40.788Z,99679.72
2023-02-19T16:03:20.886Z,99686.03
2023-02-19T16:06:14.014Z,99678.97
2023-02-19T16:08:43.968Z,99696.06
2023-02-19T16:11:22.985Z,99692.53
2023-02-19T16:13:51.877Z,99688.22
2023-02-19T16:16:39.408Z,99680.63
2023-02-19T16:19:06.261Z,99688.22
2023-02-19T16:21:33.760Z,99683.34
2023-02-19T16:24:16.099Z,99681.72
2023-02-19T16:26:45.527Z,99693.41
2023-02-19T16:29:25.565Z,99693.09
2023-02-19T16:32:06.570Z,99702.34
2023-02-19T16:34:53.083Z,99695.03
2023-02-19T16:37:34.464Z,99694.22
2023-02-19T16:40:21.535Z,99690.41
2023-02-19T16:42:51.898Z,99685.28
2023-02-19T16:45:19.208Z,99682.81
2023-02-19T16:47:51.107Z,99678.50
2023-02-19T16:50:24.964Z,99682.31
2023-02-19T16:53:03.495Z,99681.75
2023-02-19T16:55:37.516Z,99687.75
2023-02-19T16:58:04.551Z,99677.44
2023-02-19T17:00:32.633Z,99679.06
2023-02-19T17:03:09.288Z,99696.72
2023-02-19T17:05:38.908Z,99690.75
2023-02-19T17:08:42.717Z,99702.38
2023-02-19T17:11:16.032Z,99709.19
2023-02-19T17:13:48.785Z,99708.09
2023-02-19T17:16:21.593Z,99705.13
2023-02-19T17:18:48.712Z,99713.53
2023-02-19T17:21:27.041Z,99716.50
2023-02-19T17:23:55.700Z,99706.50
2023-02-19T17:26:29.604Z,99699.16
2023-02-19T17:28:58.919Z,99712.47
2023-02-19T17:31:26.091Z,99708.13
2023-02-19T17:33:53.788Z,99709.75
2023-02-19T17:36:26.746Z,99714.06
2023-02-19T17:38:54.245Z,99707.03
2023-02-19T17:41:21.229Z,99719.75
2023-02-19T17:43:50.274Z,99720.31
2023-02-19T17:46:24.550Z,99721.94
2023-02-19T17:48:52.935Z,99730.59
2023-02-19T17:51:20.566Z,99727.34
2023-02-19T17:53:47.637Z,99741.44
2023-02-19T17:56:25.570Z,99744.97
2023-02-19T17:58:53.915Z,99746.88
2023-02-19T18:01:22.011Z,99757.16
2023-02-19T18:03:50.383Z,99758.25
2023-02-19T18:06:17.946Z,99769.09
2023-02-19T18:08:53.181Z,99781.00
2023-02-19T18:11:23.698Z,99783.72
2023-02-19T18:13:52.873Z,99786.72
2023-02-19T18:16:23.124Z,99795.66
2023-02-19T18:18:50.701Z,99789.44
2023-02-19T18:21:17.848Z,99792.41
2023-02-19T18:23:46.043Z,99788.88
2023-02-19T18:26:13.704Z,99781.84
2023-02-19T18:28:40.574Z,99784.81
2023-02-19T18:31:07.930Z,99786.16
2023-02-19T18:33:36.279Z,99782.09
2023-02-19T18:36:04.308Z,99790.78
2023-02-19T18:38:31.320Z,99781.00
2023-02-19T18:40:58.935Z,99796.44
2023-02-19T18:43:26.325Z,99793.19
2023-02-19T18:45:55.609Z,99797.81
2023-02-19T18:48:23.785Z,99801.06
2023-02-19T18:50:53.682Z,99797.00
2023-02-19T18:53:20.562Z,99812.16
2023-02-19T18:55:47.793Z,99795.66
2023-02-19T18:58:14.764Z,99815.41
2023-02-19T19:00:41.516Z,99821.66
2023-02-19T19:03:08.394Z,99820.56
2023-02-19T19:05:35.643Z,99829.50
2023-02-19T19:08:02.642Z,99836.31
2023-02-19T19:10:30.958Z,99827.09
2023-02-19T19:12:58.428Z,99828.16
2023-02-19T19:15:25.987Z,99836.00
2023-02-19T19:17:53.207Z,99837.91
2023-02-19T19:20:23.111Z,99844.41
2023-02-19T19:22:54.190Z,99846.59
2023-02-19T19:25:22.906Z,99852.56
2023-02-19T19:27:51.668Z,99854.19
2023-02-19T19:30:20.080Z,99852.00
2023-02-19T19:32:52.464Z,99853.34
2023-02-19T19:35:21.983Z,99847.91
2023-02-19T19:37:52.331Z,99850.91
2023-02-19T19:40:19.435Z,99844.94
2023-02-19T19:42:46.825Z,99851.44
2023-02-19T19:45:14.556Z,99851.44
2023-02-19T19:47:41.664Z,99856.59
2023-02-19T19:50:09.147Z,99859.56
2023-02-19T19:52:36.423Z,99861.22
2023-02-19T19:55:03.427Z,99859.03
2023-02-19T19:57:30.198Z,99874.47
2023-02-19T19:59:57.054Z,99866.34
2023-02-19T20:02:24.046Z,99866.63
2023-02-19T20:04:51.318Z,99854.16
2023-02-19T20:07:18.488Z,99855.78
2023-02-19T20:09:49.996Z,99850.91
2023-02-19T20:12:18.153Z,99853.63
2023-02-19T20:14:46.621Z,99849.28
2023-02-19T20:17:14.881Z,99852.00
2023-02-19T20:19:42.180Z,99840.59
2023-02-19T20:22:09.056Z,99851.44
2023-02-19T20:24:35.914Z,99856.84
2023-02-19T20:27:02.917Z,99852.78
2023-02-19T20:29:34.442Z,99858.47
2023-02-19T20:32:03.543Z,99851.44
2023-02-19T20:34:31.691Z,99859.56
2023-02-19T20:36:59.118Z,99853.06
2023-02-19T20:39:29.038Z,99862.53
2023-02-19T20:41:57.389Z,99860.66
2023-02-19T20:44:26.036Z,99856.31
2023-02-19T20:46:54.419Z,99857.41
2023-02-19T20:49:28.249Z,99856.56
2023-02-19T20:51:59.856Z,99848.72
2023-02-19T20:54:30.566Z,99844.09
2023-02-19T20:57:01.066Z,99860.09
2023-02-19T20:59:34.700Z,99856.31
2023-02-19T21:02:08.028Z,99856.84
2023-02-19T21:04:38.436Z,99868.47
2023-02-19T21:07:05.174Z,99871.47
2023-02-19T21:09:32.124Z,99873.63
2023-02-19T21:11:59.960Z,99877.09
2023-02-19T21:14:27.122Z,99883.06
2023-02-19T21:16:54.285Z,99875.75
2023-02-19T21:19:21.858Z,99876.28
2023-02-19T21:21:48.712Z,99875.75
2023-02-19T21:24:15.905Z,99870.34
2023-02-19T21:26:44.239Z,99883.59
2023-02-19T21:29:19.597Z,99883.06
2023-02-19T21:31:54.533Z,99879.28
2023-02-19T21:34:27.123Z,99879.81
2023-02-19T21:36:55.677Z,99871.44
2023-02-19T21:39:25.031Z,99855.44
2023-02-19T21:41:53.639Z,99854.91
2023-02-19T21:44:21.315Z,99848.94
2023-02-19T21:46:48.537Z,99848.13
2023-02-19T21:49:15.567Z,99841.34
2023-02-19T21:51:45.110Z,99837.84
2023-02-19T21:54:30.199Z,99843.25
2023-02-19T21:56:57.310Z,99844.88
2023-02-19T21:59:24.250Z,99836.19
2023-02-19T22:01:51.044Z,99842.97
2023-02-19T22:04:24.622Z,99841.09
2023-02-19T22:06:56.277Z,99837.28
2023-02-19T22:09:23.485Z,99840.53
2023-02-19T22:11:50.375Z,99843.78
2023-02-19T22:14:17.222Z,99855.69
2023-02-19T22:16:44.343Z,99865.44
2023-02-19T22:19:12.824Z,99859.50
2023-02-19T22:21:44.386Z,99872.50
2023-02-19T22:24:19.038Z,99875.22
2023-02-19T22:26:50.633Z,99881.44
2023-02-19T22:29:17.812Z,99886.31
2023-02-19T22:31:45.100Z,99889.31
2023-02-19T22:34:12.653Z,99903.09
2023-02-19T22:36:40.344Z,99904.72
2023-02-19T22:39:15.481Z,99897.69
2023-02-19T22:41:43.614Z,99899.03
2023-02-19T22:44:11.831Z,99895.25
2023-02-19T22:46:38.775Z,99887.66
2023-02-19T22:49:06.571Z,99889.81
2023-02-19T22:51:35.528Z,99890.06
2023-02-19T22:54:02.752Z,99892.53
2023-02-19T22:56:30.208Z,99888.75
2023-02-19T22:58:58.946Z,99887.66
2023-02-19T23:01:26.240Z,99883.31
2023-02-19T23:03:59.241Z,99883.84
2023-02-19T23:06:29.322Z,99888.97
2023-02-19T23:09:01.830Z,99891.66
2023-02-19T23:11:32.848Z,99889.78
2023-02-19T23:13:59.826Z,99900.34
2023-02-19T23:16:27.267Z,99892.50
2023-02-19T23:18:54.598Z,99885.97
2023-02-19T23:21:23.441Z,99897.91
2023-02-19T23:23:51.670Z,99896.81
2023-02-19T23:26:20.627Z,99900.06
2023-02-19T23:28:47.613Z,99893.56
2023-02-19T23:31:16.166Z,99906.25
2023-02-19T23:33:44.203Z,99911.16
2023-02-19T23:36:12.246Z,99917.41
2023-02-19T23:38:40.688Z,99912.50
2023-02-19T23:41:13.144Z,99917.09
2023-02-19T23:43:42.118Z,99910.28
2023-02-19T23:46:13.188Z,99912.22
2023-02-19T23:48:40.257Z,99914.59
2023-02-19T23:51:07.091Z,99923.53
2023-02-19T23:53:33.853Z,99912.16
2023-02-19T23:56:00.877Z,99917.25
2023-02-19T23:58:27.669Z,99919.41
